Dickert, Alabama
Current Conditions -  °F | °C
As of 6:15 AM on Monday 26 Jan 2015 (Local Time) from KLGC Reporting Station
Overcast Overcast  
Wind Chill:   Ceiling: 1200
Heat Index:   Visibility: 10mi
Dew Point:   Wind: 15mph
Humidity: 90%   Direction: 290°WNW
Pressure: 29.84"   Gusts: NA
Location:  33.1661°N, 85.5111°W
Report Text: KLGC 261215Z AUTO 29013KT 10SM OVC012 08/07 A2984 RMK AO2 T00830068
Loading
Personal Weather Stations






























Interactive Weather Map New forecast layout! Learn more

10-Day Weather Forecast

Advertisements
Track Severe Weather on mobile